createdAt,value
2022-08-30T00:01:00.949Z,19.88
2022-08-30T00:03:28.042Z,19.90
2022-08-30T00:05:56.281Z,19.88
2022-08-30T00:08:23.592Z,19.84
2022-08-30T00:10:51.399Z,19.83
2022-08-30T00:13:19.004Z,19.81
2022-08-30T00:15:46.680Z,19.81
2022-08-30T00:18:13.673Z,19.83
2022-08-30T00:20:40.695Z,19.82
2022-08-30T00:23:07.540Z,19.80
2022-08-30T00:25:34.539Z,19.78
2022-08-30T00:28:01.490Z,19.77
2022-08-30T00:30:28.388Z,19.76
2022-08-30T00:32:55.298Z,19.73
2022-08-30T00:35:22.711Z,19.67
2022-08-30T00:37:51.210Z,19.62
2022-08-30T00:40:20.498Z,19.52
2022-08-30T00:42:59.409Z,19.45
2022-08-30T00:45:31.947Z,19.38
2022-08-30T00:47:59.292Z,19.28
2022-08-30T00:50:28.413Z,19.22
2022-08-30T00:52:57.435Z,19.16
2022-08-30T00:55:24.555Z,19.08
2022-08-30T00:57:53.813Z,19.08
2022-08-30T01:00:20.869Z,19.04
2022-08-30T01:02:49.092Z,19.09
2022-08-30T01:05:18.728Z,19.10
2022-08-30T01:07:45.568Z,19.09
2022-08-30T01:10:13.697Z,19.13
2022-08-30T01:12:42.264Z,19.18
2022-08-30T01:15:10.570Z,19.24
2022-08-30T01:17:38.147Z,19.25
2022-08-30T01:20:08.213Z,19.21
2022-08-30T01:22:39.596Z,19.21
2022-08-30T01:25:08.423Z,19.19
2022-08-30T01:27:38.574Z,19.19
2022-08-30T01:30:06.436Z,19.21
2022-08-30T01:32:38.331Z,19.23
2022-08-30T01:35:05.566Z,19.27
2022-08-30T01:37:34.241Z,19.23
2022-08-30T01:40:01.315Z,19.04
2022-08-30T01:42:28.610Z,18.82
2022-08-30T01:44:55.566Z,18.67
2022-08-30T01:47:23.211Z,18.69
2022-08-30T01:49:50.508Z,18.76
2022-08-30T01:52:17.742Z,18.81
2022-08-30T01:54:45.192Z,18.86
2022-08-30T01:57:13.481Z,18.82
2022-08-30T01:59:41.189Z,18.80
2022-08-30T02:02:08.548Z,18.76
2022-08-30T02:04:36.528Z,18.78
2022-08-30T02:07:04.103Z,18.79
2022-08-30T02:09:31.067Z,18.83
2022-08-30T02:11:58.177Z,18.86
2022-08-30T02:14:25.171Z,18.86
2022-08-30T02:16:52.144Z,18.81
2022-08-30T02:19:19.000Z,18.76
2022-08-30T02:21:45.837Z,18.78
2022-08-30T02:24:12.872Z,18.76
2022-08-30T02:26:39.734Z,18.67
2022-08-30T02:29:06.602Z,18.63
2022-08-30T02:31:33.539Z,18.51
2022-08-30T02:34:00.503Z,18.52
2022-08-30T02:36:27.498Z,18.57
2022-08-30T02:38:54.378Z,18.53
2022-08-30T02:41:21.539Z,18.42
2022-08-30T02:43:48.391Z,18.36
2022-08-30T02:46:15.393Z,18.39
2022-08-30T02:48:42.773Z,18.38
2022-08-30T02:51:12.036Z,18.40
2022-08-30T02:53:39.726Z,18.39
2022-08-30T02:56:06.879Z,18.32
2022-08-30T02:58:33.746Z,18.26
2022-08-30T03:01:01.201Z,18.19
2022-08-30T03:03:28.325Z,18.10
2022-08-30T03:05:55.394Z,18.05
2022-08-30T03:08:23.018Z,18.02
2022-08-30T03:10:50.280Z,18.00
2022-08-30T03:13:17.241Z,17.98
2022-08-30T03:15:44.243Z,17.93
2022-08-30T03:18:11.379Z,17.98
2022-08-30T03:20:38.908Z,17.95
2022-08-30T03:23:05.801Z,17.86
2022-08-30T03:25:33.989Z,17.82
2022-08-30T03:28:01.127Z,17.80
2022-08-30T03:30:28.114Z,17.83
2022-08-30T03:32:54.884Z,17.92
2022-08-30T03:35:21.935Z,18.00
2022-08-30T03:37:49.515Z,18.08
2022-08-30T03:40:23.195Z,18.13
2022-08-30T03:42:50.665Z,18.21
2022-08-30T03:45:18.661Z,18.19
2022-08-30T03:47:46.029Z,18.20
2022-08-30T03:50:13.501Z,18.27
2022-08-30T03:52:40.381Z,18.30
2022-08-30T03:55:07.667Z,18.37
2022-08-30T03:57:34.729Z,18.43
2022-08-30T04:00:04.718Z,18.46
2022-08-30T04:02:38.372Z,18.49
2022-08-30T04:05:05.883Z,18.51
2022-08-30T04:07:32.801Z,18.51
2022-08-30T04:09:59.717Z,18.52
2022-08-30T04:12:28.830Z,18.54
2022-08-30T04:14:55.911Z,18.55
2022-08-30T04:17:22.810Z,18.60
2022-08-30T04:19:49.694Z,18.66
2022-08-30T04:22:16.634Z,18.67
2022-08-30T04:24:43.625Z,18.66
2022-08-30T04:27:10.718Z,18.65
2022-08-30T04:29:37.640Z,18.67
2022-08-30T04:32:04.755Z,18.68
2022-08-30T04:34:31.744Z,18.68
2022-08-30T04:36:58.889Z,18.75
2022-08-30T04:39:26.213Z,18.79
2022-08-30T04:41:53.218Z,18.83
2022-08-30T04:44:20.255Z,18.87
2022-08-30T04:46:47.505Z,18.95
2022-08-30T04:49:14.383Z,19.04
2022-08-30T04:51:41.395Z,19.09
2022-08-30T04:54:08.293Z,19.19
2022-08-30T04:56:35.271Z,19.26
2022-08-30T04:59:02.446Z,19.32
2022-08-30T05:01:30.152Z,19.38
2022-08-30T05:04:00.368Z,19.38
2022-08-30T05:06:28.475Z,19.40
2022-08-30T05:08:55.648Z,19.43
2022-08-30T05:11:23.824Z,19.43
2022-08-30T05:13:51.001Z,19.38
2022-08-30T05:16:20.671Z,19.34
2022-08-30T05:18:49.148Z,19.34
2022-08-30T05:21:22.948Z,19.38
2022-08-30T05:23:50.489Z,19.37
2022-08-30T05:26:20.196Z,19.36
2022-08-30T05:29:04.573Z,19.37
2022-08-30T05:31:36.374Z,19.41
2022-08-30T05:34:09.181Z,19.46
2022-08-30T05:36:41.737Z,19.48
2022-08-30T05:39:21.026Z,19.48
2022-08-30T05:41:56.884Z,19.44
2022-08-30T05:44:29.796Z,19.41
2022-08-30T05:46:59.899Z,19.37
2022-08-30T05:49:32.948Z,19.33
2022-08-30T05:52:25.826Z,19.34
2022-08-30T05:55:00.578Z,19.41
2022-08-30T05:57:28.432Z,19.42
2022-08-30T05:59:56.627Z,19.46
2022-08-30T06:03:00.003Z,19.52
2022-08-30T06:05:32.800Z,19.56
2022-08-30T06:08:05.106Z,19.58
2022-08-30T06:10:35.650Z,19.61
2022-08-30T06:13:04.952Z,19.69
2022-08-30T06:15:34.899Z,19.77
2022-08-30T06:18:02.698Z,19.79
2022-08-30T06:20:41.382Z,19.83
2022-08-30T06:23:21.356Z,19.80
2022-08-30T06:25:54.710Z,19.84
2022-08-30T06:28:25.277Z,19.88
2022-08-30T06:30:52.450Z,19.84
2022-08-30T06:33:20.190Z,19.90
2022-08-30T06:35:58.884Z,19.95
2022-08-30T06:38:31.099Z,20.03
2022-08-30T06:40:58.308Z,20.06
2022-08-30T06:43:25.206Z,20.11
2022-08-30T06:45:52.527Z,20.05
2022-08-30T06:48:21.155Z,20.01
2022-08-30T06:50:53.108Z,20.09
2022-08-30T06:53:20.342Z,20.15
2022-08-30T06:56:22.147Z,20.20
2022-08-30T06:58:49.285Z,20.25
2022-08-30T07:01:18.966Z,20.31
2022-08-30T07:03:47.627Z,20.31
2022-08-30T07:06:14.912Z,20.34
2022-08-30T07:08:43.394Z,20.37
2022-08-30T07:11:10.636Z,20.39
2022-08-30T07:13:38.720Z,20.38
2022-08-30T07:16:12.232Z,20.34
2022-08-30T07:18:52.402Z,20.33
2022-08-30T07:21:21.135Z,20.33
2022-08-30T07:23:53.633Z,20.35
2022-08-30T07:26:24.118Z,20.41
2022-08-30T07:28:52.269Z,20.48
2022-08-30T07:31:27.580Z,20.60
2022-08-30T07:33:57.593Z,20.67
2022-08-30T07:36:26.099Z,20.73
2022-08-30T07:38:55.352Z,20.80
2022-08-30T07:41:26.592Z,20.91
2022-08-30T07:43:53.790Z,20.84
2022-08-30T07:46:21.796Z,20.84
2022-08-30T07:48:49.095Z,20.87
2022-08-30T07:51:17.950Z,20.88
2022-08-30T07:53:45.304Z,20.92
2022-08-30T07:56:13.006Z,20.94
2022-08-30T07:58:39.995Z,21.00
2022-08-30T08:01:08.363Z,21.05
2022-08-30T08:03:35.653Z,21.08
2022-08-30T08:06:05.805Z,21.12
2022-08-30T08:08:33.481Z,21.12
2022-08-30T08:11:06.925Z,21.07
2022-08-30T08:13:36.590Z,21.05
2022-08-30T08:16:22.617Z,21.10
2022-08-30T08:18:49.878Z,21.21
2022-08-30T08:21:17.536Z,21.34
2022-08-30T08:23:44.782Z,21.41
2022-08-30T08:26:15.256Z,21.44
2022-08-30T08:28:46.675Z,21.50
2022-08-30T08:31:31.490Z,21.59
2022-08-30T08:36:33.391Z,21.88
2022-08-30T08:39:01.055Z,21.95
2022-08-30T08:41:54.462Z,22.02
2022-08-30T08:44:41.560Z,22.02
2022-08-30T08:47:25.916Z,22.06
2022-08-30T08:49:55.810Z,22.09
2022-08-30T08:53:00.311Z,22.07
2022-08-30T08:55:27.318Z,21.94
2022-08-30T08:57:54.353Z,21.77
2022-08-30T09:00:21.474Z,21.77
2022-08-30T09:02:55.794Z,21.75
2022-08-30T09:05:26.424Z,21.67
2022-08-30T09:07:57.660Z,21.60
2022-08-30T09:10:47.084Z,21.58
2022-08-30T09:13:13.446Z,21.62
2022-08-30T09:15:41.180Z,21.71
2022-08-30T09:18:19.112Z,21.82
2022-08-30T09:20:50.531Z,21.91
2022-08-30T09:23:22.629Z,22.00
2022-08-30T09:25:57.411Z,22.12
2022-08-30T09:28:30.966Z,22.32
2022-08-30T09:31:16.118Z,22.41
2022-08-30T09:33:53.912Z,22.55
2022-08-30T09:36:25.886Z,22.69
2022-08-30T09:39:06.877Z,22.74
2022-08-30T09:41:42.852Z,22.83
2022-08-30T09:44:14.348Z,22.92
2022-08-30T09:49:46.008Z,22.99
2022-08-30T09:52:31.384Z,23.08
2022-08-30T09:55:31.437Z,23.14
2022-08-30T09:58:29.776Z,23.06
2022-08-30T10:01:12.319Z,22.90
2022-08-30T10:03:43.866Z,22.80
2022-08-30T10:06:31.263Z,22.78
2022-08-30T10:09:17.891Z,22.71
2022-08-30T10:11:59.610Z,22.71
2022-08-30T10:14:32.776Z,22.70
2022-08-30T10:17:27.099Z,22.76
2022-08-30T10:20:12.711Z,22.92
2022-08-30T10:22:47.338Z,23.00
2022-08-30T10:25:23.176Z,23.12
2022-08-30T10:27:55.893Z,23.29
2022-08-30T10:30:23.679Z,23.47
2022-08-30T10:33:08.877Z,23.67
2022-08-30T10:35:48.696Z,23.83
2022-08-30T10:38:20.260Z,23.98
2022-08-30T10:41:09.359Z,24.16
2022-08-30T10:43:55.191Z,24.36
2022-08-30T10:46:36.535Z,24.48
2022-08-30T10:49:04.804Z,24.48
2022-08-30T10:51:36.931Z,24.36
2022-08-30T10:54:26.667Z,24.35
2022-08-30T10:56:54.716Z,24.38
2022-08-30T10:59:22.401Z,24.44
2022-08-30T11:02:10.485Z,24.49
2022-08-30T11:05:07.145Z,24.48
2022-08-30T11:08:07.069Z,24.62
2022-08-30T11:10:52.598Z,24.82
2022-08-30T11:13:25.267Z,25.06
2022-08-30T11:15:54.114Z,25.29
2022-08-30T11:18:22.286Z,25.48
2022-08-30T11:20:52.692Z,25.59
2022-08-30T11:23:22.062Z,25.63
2022-08-30T11:26:20.411Z,26.01
2022-08-30T11:29:09.590Z,26.66
2022-08-30T11:31:37.920Z,27.07
2022-08-30T11:34:04.996Z,27.33
2022-08-30T11:36:52.070Z,27.64
2022-08-30T11:39:45.511Z,27.95
2022-08-30T11:42:30.887Z,28.17
2022-08-30T11:45:16.952Z,28.08
2022-08-30T11:47:47.465Z,27.93
2022-08-30T11:50:24.552Z,27.72
2022-08-30T11:53:19.309Z,27.63
2022-08-30T11:56:08.800Z,27.74
2022-08-30T11:58:58.031Z,28.13
2022-08-30T12:01:51.296Z,28.54
2022-08-30T12:04:37.910Z,29.11
2022-08-30T12:07:07.198Z,29.31
2022-08-30T12:09:55.593Z,29.67
2022-08-30T12:12:41.021Z,30.17
2022-08-30T12:15:07.886Z,30.49
2022-08-30T12:18:15.736Z,30.88
2022-08-30T12:20:44.847Z,31.28
2022-08-30T12:23:32.018Z,31.08
2022-08-30T12:26:16.532Z,30.92
2022-08-30T12:28:43.963Z,30.85
2022-08-30T12:31:16.775Z,30.55
2022-08-30T12:33:54.021Z,30.37
2022-08-30T12:36:40.907Z,30.66
2022-08-30T12:39:17.739Z,30.93
2022-08-30T12:41:45.332Z,31.22
2022-08-30T12:44:18.260Z,31.34
2022-08-30T12:46:48.511Z,31.07
2022-08-30T12:49:20.451Z,30.68
2022-08-30T12:51:47.632Z,30.83
2022-08-30T12:54:23.162Z,30.68
2022-08-30T12:59:59.344Z,30.37
2022-08-30T13:02:43.780Z,30.69
2022-08-30T13:05:32.227Z,30.20
2022-08-30T13:08:21.352Z,30.23
2022-08-30T13:11:07.394Z,30.75
2022-08-30T13:13:44.504Z,31.05
2022-08-30T13:16:22.121Z,31.55
2022-08-30T13:18:53.993Z,31.55
2022-08-30T13:21:26.354Z,31.19
2022-08-30T13:23:58.458Z,30.99
2022-08-30T13:26:27.525Z,31.31
2022-08-30T13:28:58.754Z,31.61
2022-08-30T13:31:26.886Z,31.77
2022-08-30T13:33:54.254Z,31.99
2022-08-30T13:36:23.145Z,32.05
2022-08-30T13:38:52.133Z,31.82
2022-08-30T13:41:21.015Z,32.26
2022-08-30T13:46:35.727Z,32.43
2022-08-30T13:49:04.870Z,32.48
2022-08-30T13:51:31.913Z,32.93
2022-08-30T13:54:01.640Z,33.22
2022-08-30T13:56:32.401Z,33.02
2022-08-30T13:59:02.897Z,32.87
2022-08-30T14:01:31.620Z,32.53
2022-08-30T14:04:18.621Z,32.35
2022-08-30T14:09:34.722Z,32.37
2022-08-30T14:12:01.779Z,32.30
2022-08-30T14:14:42.860Z,32.27
2022-08-30T14:17:10.465Z,32.40
2022-08-30T14:19:40.002Z,32.63
2022-08-30T14:22:07.522Z,32.64
2022-08-30T14:24:35.154Z,32.60
2022-08-30T14:27:01.985Z,32.56
2022-08-30T14:29:30.102Z,32.26
2022-08-30T14:31:58.390Z,31.99
2022-08-30T14:34:27.065Z,31.94
2022-08-30T14:36:53.987Z,32.33
2022-08-30T14:39:21.252Z,32.74
2022-08-30T14:41:50.383Z,32.92
2022-08-30T14:44:18.397Z,32.96
2022-08-30T14:46:45.803Z,33.32
2022-08-30T14:49:12.901Z,33.82
2022-08-30T14:51:40.464Z,34.07
2022-08-30T14:54:07.724Z,34.12
2022-08-30T14:56:34.748Z,34.12
2022-08-30T14:59:03.077Z,34.24
2022-08-30T15:01:30.557Z,34.58
2022-08-30T15:03:58.457Z,34.55
2022-08-30T15:06:26.325Z,34.64
2022-08-30T15:08:53.670Z,34.76
2022-08-30T15:11:21.817Z,34.83
2022-08-30T15:13:48.974Z,34.53
2022-08-30T15:16:27.343Z,34.38
2022-08-30T15:18:54.670Z,34.61
2022-08-30T15:21:25.715Z,34.68
2022-08-30T15:23:52.815Z,34.67
2022-08-30T15:26:19.813Z,34.56
2022-08-30T15:28:46.835Z,34.47
2022-08-30T15:31:13.699Z,34.46
2022-08-30T15:33:41.080Z,34.47
2022-08-30T15:36:11.836Z,34.32
2022-08-30T15:38:39.045Z,33.96
2022-08-30T15:41:08.657Z,33.52
2022-08-30T15:43:35.847Z,33.05
2022-08-30T15:46:23.220Z,32.67
2022-08-30T15:48:55.444Z,32.23
2022-08-30T15:51:22.981Z,31.93
2022-08-30T15:53:50.800Z,31.67
2022-08-30T15:56:17.773Z,31.42
2022-08-30T15:58:45.368Z,31.16
2022-08-30T16:01:14.975Z,30.98
2022-08-30T16:03:42.158Z,30.77
2022-08-30T16:06:14.060Z,30.59
2022-08-30T16:08:41.363Z,30.39
2022-08-30T16:11:09.365Z,30.19
2022-08-30T16:13:36.558Z,29.95
2022-08-30T16:16:04.699Z,29.83
2022-08-30T16:18:31.692Z,29.71
2022-08-30T16:21:19.261Z,29.77
2022-08-30T16:23:47.205Z,29.93
2022-08-30T16:26:17.458Z,30.28
2022-08-30T16:28:44.987Z,30.55
2022-08-30T16:31:12.167Z,30.53
2022-08-30T16:33:42.997Z,30.26
2022-08-30T16:36:11.971Z,30.12
2022-08-30T16:38:40.114Z,29.84
2022-08-30T16:41:08.403Z,29.47
2022-08-30T16:43:36.443Z,29.05
2022-08-30T16:46:05.748Z,28.66
2022-08-30T16:48:34.589Z,28.32
2022-08-30T16:51:07.524Z,28.04
2022-08-30T16:53:35.803Z,27.73
2022-08-30T16:56:07.731Z,27.42
2022-08-30T16:58:35.018Z,27.16
2022-08-30T17:01:02.294Z,26.95
2022-08-30T17:03:30.694Z,26.78
2022-08-30T17:05:58.522Z,26.59
2022-08-30T17:08:25.950Z,26.42
2022-08-30T17:10:53.508Z,26.27
2022-08-30T17:13:21.960Z,26.12
2022-08-30T17:15:50.114Z,25.93
2022-08-30T17:18:17.895Z,25.72
2022-08-30T17:20:45.513Z,25.59
2022-08-30T17:23:13.256Z,25.43
2022-08-30T17:25:41.149Z,25.28
2022-08-30T17:28:08.489Z,25.17
2022-08-30T17:30:35.712Z,25.06
2022-08-30T17:33:03.104Z,24.95
2022-08-30T17:35:30.682Z,24.84
2022-08-30T17:37:57.908Z,24.73
2022-08-30T17:40:25.251Z,24.68
2022-08-30T17:42:52.435Z,24.60
2022-08-30T17:45:19.532Z,24.50
2022-08-30T17:47:47.129Z,24.39
2022-08-30T17:50:14.449Z,24.31
2022-08-30T17:52:41.660Z,24.25
2022-08-30T17:55:08.879Z,24.04
2022-08-30T17:57:36.215Z,23.70
2022-08-30T18:00:05.791Z,23.47
2022-08-30T18:02:35.242Z,23.35
2022-08-30T18:05:04.880Z,23.39
2022-08-30T18:07:31.873Z,23.36
2022-08-30T18:09:59.347Z,23.29
2022-08-30T18:12:26.917Z,23.23
2022-08-30T18:14:54.239Z,23.18
2022-08-30T18:17:21.265Z,23.17
2022-08-30T18:19:49.418Z,23.17
2022-08-30T18:22:16.593Z,23.13
2022-08-30T18:24:45.111Z,23.13
2022-08-30T18:27:13.509Z,23.09
2022-08-30T18:29:40.526Z,23.00
2022-08-30T18:32:09.206Z,22.93
2022-08-30T18:34:36.140Z,22.89
2022-08-30T18:37:03.200Z,22.83
2022-08-30T18:39:34.736Z,22.75
2022-08-30T18:42:02.258Z,22.66
2022-08-30T18:44:33.384Z,22.65
2022-08-30T18:47:01.489Z,22.67
2022-08-30T18:49:29.269Z,22.57
2022-08-30T18:51:59.988Z,22.53
2022-08-30T18:54:27.114Z,22.54
2022-08-30T18:56:54.578Z,22.55
2022-08-30T18:59:21.814Z,22.52
2022-08-30T19:01:49.722Z,22.49
2022-08-30T19:04:30.640Z,22.48
2022-08-30T19:07:03.415Z,22.43
2022-08-30T19:09:30.773Z,22.42
2022-08-30T19:11:57.625Z,22.37
2022-08-30T19:14:24.566Z,22.31
2022-08-30T19:16:55.060Z,22.29
2022-08-30T19:19:23.047Z,22.28
2022-08-30T19:21:50.613Z,22.27
2022-08-30T19:24:18.103Z,22.25
2022-08-30T19:26:46.881Z,22.25
2022-08-30T19:29:15.125Z,22.28
2022-08-30T19:31:44.184Z,22.29
2022-08-30T19:34:11.759Z,22.24
2022-08-30T19:36:39.824Z,22.23
2022-08-30T19:39:06.963Z,22.20
2022-08-30T19:41:33.818Z,22.16
2022-08-30T19:44:03.522Z,22.16
2022-08-30T19:46:30.906Z,22.13
2022-08-30T19:49:01.140Z,22.11
2022-08-30T19:51:28.089Z,22.12
2022-08-30T19:53:56.445Z,22.13
2022-08-30T19:56:25.917Z,22.09
2022-08-30T19:58:53.208Z,22.06
2022-08-30T20:04:07.289Z,21.98
2022-08-30T20:06:34.858Z,21.91
2022-08-30T20:09:02.067Z,21.89
2022-08-30T20:11:29.089Z,21.82
2022-08-30T20:13:56.182Z,21.71
2022-08-30T20:16:33.016Z,21.42
2022-08-30T20:19:06.256Z,21.04
2022-08-30T20:21:33.876Z,20.86
2022-08-30T20:24:01.120Z,20.71
2022-08-30T20:26:33.669Z,20.62
2022-08-30T20:29:02.166Z,20.61
2022-08-30T20:31:29.367Z,20.53
2022-08-30T20:33:57.087Z,20.47
2022-08-30T20:36:23.984Z,20.49
2022-08-30T20:38:51.294Z,20.47
2022-08-30T20:41:19.201Z,20.46
2022-08-30T20:43:46.661Z,20.56
2022-08-30T20:46:15.287Z,20.62
2022-08-30T20:48:42.680Z,20.65
2022-08-30T20:51:17.461Z,20.72
2022-08-30T20:53:44.850Z,20.76
2022-08-30T20:56:13.530Z,20.78
2022-08-30T20:58:41.033Z,20.79
2022-08-30T21:01:08.839Z,20.82
2022-08-30T21:03:36.836Z,20.83
2022-08-30T21:06:03.990Z,20.86
2022-08-30T21:08:31.033Z,20.79
2022-08-30T21:10:58.017Z,20.75
2022-08-30T21:13:24.899Z,20.81
2022-08-30T21:15:54.691Z,20.88
2022-08-30T21:18:22.303Z,20.92
2022-08-30T21:20:49.291Z,20.94
2022-08-30T21:23:16.342Z,20.91
2022-08-30T21:25:43.526Z,20.90
2022-08-30T21:28:10.631Z,20.89
2022-08-30T21:30:37.740Z,20.87
2022-08-30T21:33:06.125Z,20.88
2022-08-30T21:35:51.670Z,20.89
2022-08-30T21:38:19.420Z,20.91
2022-08-30T21:40:46.565Z,20.91
2022-08-30T21:43:13.483Z,20.90
2022-08-30T21:45:42.017Z,20.87
2022-08-30T21:48:09.656Z,20.81
2022-08-30T21:50:38.263Z,20.84
2022-08-30T21:53:06.181Z,20.86
2022-08-30T21:55:33.141Z,20.82
2022-08-30T21:58:00.154Z,20.75
2022-08-30T22:00:27.010Z,20.63
2022-08-30T22:02:54.021Z,20.42
2022-08-30T22:05:21.336Z,20.31
2022-08-30T22:07:48.174Z,20.17
2022-08-30T22:10:15.170Z,20.08
2022-08-30T22:12:42.084Z,19.99
2022-08-30T22:15:09.584Z,19.96
2022-08-30T22:17:36.674Z,20.00
2022-08-30T22:20:04.904Z,19.96
2022-08-30T22:22:32.234Z,20.01
2022-08-30T22:24:59.237Z,20.09
2022-08-30T22:27:26.162Z,20.16
2022-08-30T22:29:53.040Z,20.20
2022-08-30T22:32:20.128Z,20.23
2022-08-30T22:34:47.233Z,20.18
2022-08-30T22:37:14.461Z,20.18
2022-08-30T22:39:41.217Z,20.26
2022-08-30T22:42:10.158Z,20.29
2022-08-30T22:44:37.068Z,20.31
2022-08-30T22:47:03.936Z,20.22
2022-08-30T22:49:30.987Z,20.14
2022-08-30T22:51:57.799Z,20.08
2022-08-30T22:54:24.819Z,20.05
2022-08-30T22:56:51.769Z,20.04
2022-08-30T22:59:18.692Z,20.05
2022-08-30T23:01:47.261Z,20.02
2022-08-30T23:04:14.093Z,20.02
2022-08-30T23:06:40.980Z,20.04
2022-08-30T23:09:08.061Z,20.01
2022-08-30T23:11:38.206Z,20.01
2022-08-30T23:14:06.243Z,20.02
2022-08-30T23:16:33.888Z,19.96
2022-08-30T23:19:00.873Z,19.92
2022-08-30T23:21:29.130Z,19.93
2022-08-30T23:24:14.974Z,19.92
2022-08-30T23:27:01.055Z,19.92
2022-08-30T23:29:48.928Z,19.93
2022-08-30T23:32:34.731Z,19.99
2022-08-30T23:35:19.886Z,19.91
2022-08-30T23:38:10.530Z,19.85
2022-08-30T23:40:56.087Z,19.79
2022-08-30T23:43:41.436Z,19.82
2022-08-30T23:46:26.840Z,19.89
2022-08-30T23:49:12.403Z,19.92
2022-08-30T23:51:57.553Z,19.87
2022-08-30T23:54:43.140Z,19.84
2022-08-30T23:57:28.370Z,19.86
